sensor_id;sensor_type;location;lat;lon;timestamp;P1;durP1;ratioP1;P2;durP2;ratioP2
12784;SDS011;6456;42.680;23.260;2023-02-28T00:01:04;14.67;;;11.47;;
12784;SDS011;6456;42.680;23.260;2023-02-28T00:03:32;16.20;;;12.33;;
12784;SDS011;6456;42.680;23.260;2023-02-28T00:06:00;15.17;;;11.97;;
12784;SDS011;6456;42.680;23.260;2023-02-28T00:08:27;17.33;;;11.83;;
12784;SDS011;6456;42.680;23.260;2023-02-28T00:10:54;15.33;;;11.73;;
12784;SDS011;6456;42.680;23.260;2023-02-28T00:13:21;14.83;;;12.20;;
12784;SDS011;6456;42.680;23.260;2023-02-28T00:15:57;14.00;;;11.20;;
12784;SDS011;6456;42.680;23.260;2023-02-28T00:18:25;15.67;;;11.83;;
12784;SDS011;6456;42.680;23.260;2023-02-28T00:20:53;16.67;;;11.87;;
12784;SDS011;6456;42.680;23.260;2023-02-28T00:23:20;14.73;;;11.83;;
12784;SDS011;6456;42.680;23.260;2023-02-28T00:25:46;15.20;;;12.80;;
12784;SDS011;6456;42.680;23.260;2023-02-28T00:28:13;18.70;;;12.10;;
12784;SDS011;6456;42.680;23.260;2023-02-28T00:30:40;15.23;;;11.77;;
12784;SDS011;6456;42.680;23.260;2023-02-28T00:33:07;20.97;;;11.90;;
12784;SDS011;6456;42.680;23.260;2023-02-28T00:35:34;16.03;;;12.07;;
12784;SDS011;6456;42.680;23.260;2023-02-28T00:38:02;16.57;;;12.27;;
12784;SDS011;6456;42.680;23.260;2023-02-28T00:40:29;16.83;;;13.00;;
12784;SDS011;6456;42.680;23.260;2023-02-28T00:42:56;13.47;;;11.30;;
12784;SDS011;6456;42.680;23.260;2023-02-28T00:45:23;15.87;;;12.43;;
12784;SDS011;6456;42.680;23.260;2023-02-28T00:47:50;20.30;;;14.90;;
12784;SDS011;6456;42.680;23.260;2023-02-28T00:50:17;20.10;;;16.13;;
12784;SDS011;6456;42.680;23.260;2023-02-28T00:52:45;22.23;;;15.83;;
12784;SDS011;6456;42.680;23.260;2023-02-28T00:55:13;22.03;;;16.77;;
12784;SDS011;6456;42.680;23.260;2023-02-28T00:57:40;24.17;;;16.43;;
12784;SDS011;6456;42.680;23.260;2023-02-28T01:00:08;25.43;;;18.63;;
12784;SDS011;6456;42.680;23.260;2023-02-28T01:02:36;30.07;;;19.60;;
12784;SDS011;6456;42.680;23.260;2023-02-28T01:05:03;26.83;;;18.80;;
12784;SDS011;6456;42.680;23.260;2023-02-28T01:07:30;26.80;;;17.90;;
12784;SDS011;6456;42.680;23.260;2023-02-28T01:09:57;28.93;;;18.37;;
12784;SDS011;6456;42.680;23.260;2023-02-28T01:12:26;25.93;;;18.07;;
12784;SDS011;6456;42.680;23.260;2023-02-28T01:14:52;26.03;;;18.37;;
12784;SDS011;6456;42.680;23.260;2023-02-28T01:17:19;31.07;;;19.47;;
12784;SDS011;6456;42.680;23.260;2023-02-28T01:19:46;30.47;;;19.97;;
12784;SDS011;6456;42.680;23.260;2023-02-28T01:22:13;28.43;;;19.03;;
12784;SDS011;6456;42.680;23.260;2023-02-28T01:24:39;27.70;;;17.43;;
12784;SDS011;6456;42.680;23.260;2023-02-28T01:27:06;31.50;;;20.23;;
12784;SDS011;6456;42.680;23.260;2023-02-28T01:29:34;27.70;;;19.40;;
12784;SDS011;6456;42.680;23.260;2023-02-28T01:32:01;30.97;;;21.97;;
12784;SDS011;6456;42.680;23.260;2023-02-28T01:34:28;34.10;;;23.27;;
12784;SDS011;6456;42.680;23.260;2023-02-28T01:36:55;37.97;;;23.07;;
12784;SDS011;6456;42.680;23.260;2023-02-28T01:39:23;30.57;;;18.40;;
12784;SDS011;6456;42.680;23.260;2023-02-28T01:41:50;27.07;;;17.13;;
12784;SDS011;6456;42.680;23.260;2023-02-28T01:47:27;31.07;;;16.73;;
12784;SDS011;6456;42.680;23.260;2023-02-28T01:49:56;26.33;;;16.73;;
12784;SDS011;6456;42.680;23.260;2023-02-28T01:52:25;26.73;;;16.90;;
12784;SDS011;6456;42.680;23.260;2023-02-28T01:54:53;27.77;;;16.53;;
12784;SDS011;6456;42.680;23.260;2023-02-28T01:57:24;25.40;;;16.73;;
12784;SDS011;6456;42.680;23.260;2023-02-28T01:59:56;28.70;;;17.83;;
12784;SDS011;6456;42.680;23.260;2023-02-28T02:02:28;24.73;;;16.77;;
12784;SDS011;6456;42.680;23.260;2023-02-28T02:04:56;27.37;;;17.40;;
12784;SDS011;6456;42.680;23.260;2023-02-28T02:07:27;27.97;;;16.77;;
12784;SDS011;6456;42.680;23.260;2023-02-28T02:10:02;26.90;;;16.83;;
12784;SDS011;6456;42.680;23.260;2023-02-28T02:12:43;29.17;;;17.83;;
12784;SDS011;6456;42.680;23.260;2023-02-28T02:15:24;30.00;;;16.80;;
12784;SDS011;6456;42.680;23.260;2023-02-28T02:17:57;27.83;;;17.53;;
12784;SDS011;6456;42.680;23.260;2023-02-28T02:20:40;30.83;;;18.07;;
12784;SDS011;6456;42.680;23.260;2023-02-28T02:26:34;32.03;;;18.93;;
12784;SDS011;6456;42.680;23.260;2023-02-28T02:32:37;30.87;;;18.87;;
12784;SDS011;6456;42.680;23.260;2023-02-28T02:35:31;32.37;;;18.33;;
12784;SDS011;6456;42.680;23.260;2023-02-28T02:38:06;32.20;;;18.40;;
12784;SDS011;6456;42.680;23.260;2023-02-28T02:40:38;30.43;;;18.73;;
12784;SDS011;6456;42.680;23.260;2023-02-28T02:43:13;27.37;;;18.60;;
12784;SDS011;6456;42.680;23.260;2023-02-28T02:45:45;33.13;;;19.40;;
12784;SDS011;6456;42.680;23.260;2023-02-28T02:48:16;31.83;;;19.50;;
12784;SDS011;6456;42.680;23.260;2023-02-28T02:50:48;37.57;;;21.27;;
12784;SDS011;6456;42.680;23.260;2023-02-28T02:53:18;37.83;;;21.30;;
12784;SDS011;6456;42.680;23.260;2023-02-28T02:55:50;38.20;;;21.17;;
12784;SDS011;6456;42.680;23.260;2023-02-28T02:58:21;42.67;;;22.57;;
12784;SDS011;6456;42.680;23.260;2023-02-28T03:00:52;48.10;;;22.40;;
12784;SDS011;6456;42.680;23.260;2023-02-28T03:03:21;35.83;;;20.30;;
12784;SDS011;6456;42.680;23.260;2023-02-28T03:05:55;29.07;;;17.83;;
12784;SDS011;6456;42.680;23.260;2023-02-28T03:08:23;26.20;;;15.87;;
12784;SDS011;6456;42.680;23.260;2023-02-28T03:10:51;28.20;;;17.37;;
12784;SDS011;6456;42.680;23.260;2023-02-28T03:16:11;28.87;;;17.67;;
12784;SDS011;6456;42.680;23.260;2023-02-28T03:18:58;29.17;;;17.60;;
12784;SDS011;6456;42.680;23.260;2023-02-28T03:21:36;29.43;;;18.13;;
12784;SDS011;6456;42.680;23.260;2023-02-28T03:24:10;25.70;;;17.10;;
12784;SDS011;6456;42.680;23.260;2023-02-28T03:26:43;26.60;;;17.70;;
12784;SDS011;6456;42.680;23.260;2023-02-28T03:29:18;26.50;;;16.47;;
12784;SDS011;6456;42.680;23.260;2023-02-28T03:31:50;29.73;;;17.93;;
12784;SDS011;6456;42.680;23.260;2023-02-28T03:34:23;30.50;;;18.37;;
12784;SDS011;6456;42.680;23.260;2023-02-28T03:36:56;29.43;;;17.87;;
12784;SDS011;6456;42.680;23.260;2023-02-28T03:39:28;29.13;;;18.43;;
12784;SDS011;6456;42.680;23.260;2023-02-28T03:42:04;29.70;;;18.27;;
12784;SDS011;6456;42.680;23.260;2023-02-28T03:44:35;29.37;;;18.60;;
12784;SDS011;6456;42.680;23.260;2023-02-28T03:47:07;32.27;;;19.50;;
12784;SDS011;6456;42.680;23.260;2023-02-28T03:49:39;39.10;;;21.97;;
12784;SDS011;6456;42.680;23.260;2023-02-28T03:52:12;40.93;;;20.93;;
12784;SDS011;6456;42.680;23.260;2023-02-28T03:54:40;34.77;;;19.70;;
12784;SDS011;6456;42.680;23.260;2023-02-28T03:57:11;48.37;;;25.17;;
12784;SDS011;6456;42.680;23.260;2023-02-28T03:59:45;47.30;;;24.73;;
12784;SDS011;6456;42.680;23.260;2023-02-28T04:02:16;50.33;;;26.27;;
12784;SDS011;6456;42.680;23.260;2023-02-28T04:04:43;54.90;;;26.13;;
12784;SDS011;6456;42.680;23.260;2023-02-28T04:07:15;51.70;;;26.73;;
12784;SDS011;6456;42.680;23.260;2023-02-28T04:09:42;60.57;;;28.60;;
12784;SDS011;6456;42.680;23.260;2023-02-28T04:12:09;51.00;;;24.53;;
12784;SDS011;6456;42.680;23.260;2023-02-28T04:14:36;51.93;;;25.87;;
12784;SDS011;6456;42.680;23.260;2023-02-28T04:17:03;50.47;;;24.67;;
12784;SDS011;6456;42.680;23.260;2023-02-28T04:19:30;55.07;;;25.90;;
12784;SDS011;6456;42.680;23.260;2023-02-28T04:21:56;53.00;;;25.50;;
12784;SDS011;6456;42.680;23.260;2023-02-28T04:24:25;51.97;;;24.60;;
12784;SDS011;6456;42.680;23.260;2023-02-28T04:26:54;51.07;;;24.00;;
12784;SDS011;6456;42.680;23.260;2023-02-28T04:29:23;53.83;;;26.43;;
12784;SDS011;6456;42.680;23.260;2023-02-28T04:31:51;42.47;;;24.10;;
12784;SDS011;6456;42.680;23.260;2023-02-28T04:34:20;45.13;;;25.07;;
12784;SDS011;6456;42.680;23.260;2023-02-28T04:36:47;45.90;;;25.33;;
12784;SDS011;6456;42.680;23.260;2023-02-28T04:39:15;40.33;;;22.37;;
12784;SDS011;6456;42.680;23.260;2023-02-28T04:41:45;42.10;;;21.03;;
12784;SDS011;6456;42.680;23.260;2023-02-28T04:44:12;41.23;;;21.87;;
12784;SDS011;6456;42.680;23.260;2023-02-28T04:46:39;43.27;;;21.83;;
12784;SDS011;6456;42.680;23.260;2023-02-28T04:49:06;43.57;;;22.40;;
12784;SDS011;6456;42.680;23.260;2023-02-28T04:51:34;36.67;;;21.77;;
12784;SDS011;6456;42.680;23.260;2023-02-28T04:54:01;41.57;;;21.63;;
12784;SDS011;6456;42.680;23.260;2023-02-28T04:56:27;40.93;;;22.23;;
12784;SDS011;6456;42.680;23.260;2023-02-28T04:58:56;46.53;;;24.40;;
12784;SDS011;6456;42.680;23.260;2023-02-28T05:01:23;42.53;;;22.53;;
12784;SDS011;6456;42.680;23.260;2023-02-28T05:03:52;39.03;;;23.03;;
12784;SDS011;6456;42.680;23.260;2023-02-28T05:06:22;39.67;;;21.93;;
12784;SDS011;6456;42.680;23.260;2023-02-28T05:08:50;43.87;;;21.83;;
12784;SDS011;6456;42.680;23.260;2023-02-28T05:11:17;43.67;;;22.27;;
12784;SDS011;6456;42.680;23.260;2023-02-28T05:13:46;45.87;;;23.30;;
12784;SDS011;6456;42.680;23.260;2023-02-28T05:16:14;45.33;;;23.10;;
12784;SDS011;6456;42.680;23.260;2023-02-28T05:18:42;44.83;;;23.27;;
12784;SDS011;6456;42.680;23.260;2023-02-28T05:21:20;49.83;;;25.03;;
12784;SDS011;6456;42.680;23.260;2023-02-28T05:23:50;48.93;;;25.87;;
12784;SDS011;6456;42.680;23.260;2023-02-28T05:26:17;51.57;;;26.43;;
12784;SDS011;6456;42.680;23.260;2023-02-28T05:28:44;49.33;;;24.50;;
12784;SDS011;6456;42.680;23.260;2023-02-28T05:31:11;47.77;;;23.87;;
12784;SDS011;6456;42.680;23.260;2023-02-28T05:33:39;42.87;;;22.60;;
12784;SDS011;6456;42.680;23.260;2023-02-28T05:36:06;39.90;;;21.90;;
12784;SDS011;6456;42.680;23.260;2023-02-28T05:38:34;42.07;;;22.93;;
12784;SDS011;6456;42.680;23.260;2023-02-28T05:41:04;44.57;;;23.47;;
12784;SDS011;6456;42.680;23.260;2023-02-28T05:43:31;45.40;;;25.30;;
12784;SDS011;6456;42.680;23.260;2023-02-28T05:45:58;46.87;;;24.80;;
12784;SDS011;6456;42.680;23.260;2023-02-28T05:48:25;47.80;;;22.57;;
12784;SDS011;6456;42.680;23.260;2023-02-28T05:50:53;45.47;;;24.20;;
12784;SDS011;6456;42.680;23.260;2023-02-28T05:53:20;47.83;;;23.93;;
12784;SDS011;6456;42.680;23.260;2023-02-28T05:55:47;42.07;;;22.80;;
12784;SDS011;6456;42.680;23.260;2023-02-28T05:58:14;46.20;;;23.87;;
12784;SDS011;6456;42.680;23.260;2023-02-28T06:00:41;45.43;;;24.17;;
12784;SDS011;6456;42.680;23.260;2023-02-28T06:03:08;42.93;;;25.27;;
12784;SDS011;6456;42.680;23.260;2023-02-28T06:05:34;46.43;;;24.30;;
12784;SDS011;6456;42.680;23.260;2023-02-28T06:08:02;48.13;;;25.27;;
12784;SDS011;6456;42.680;23.260;2023-02-28T06:10:32;49.23;;;26.10;;
12784;SDS011;6456;42.680;23.260;2023-02-28T06:12:59;49.93;;;26.73;;
12784;SDS011;6456;42.680;23.260;2023-02-28T06:15:27;48.60;;;26.67;;
12784;SDS011;6456;42.680;23.260;2023-02-28T06:17:55;55.20;;;26.63;;
12784;SDS011;6456;42.680;23.260;2023-02-28T06:20:23;46.77;;;25.03;;
12784;SDS011;6456;42.680;23.260;2023-02-28T06:22:51;50.77;;;28.30;;
12784;SDS011;6456;42.680;23.260;2023-02-28T06:25:21;46.83;;;25.40;;
12784;SDS011;6456;42.680;23.260;2023-02-28T06:27:48;48.77;;;25.63;;
12784;SDS011;6456;42.680;23.260;2023-02-28T06:30:15;53.40;;;26.87;;
12784;SDS011;6456;42.680;23.260;2023-02-28T06:32:43;44.97;;;24.53;;
12784;SDS011;6456;42.680;23.260;2023-02-28T06:35:09;45.57;;;25.43;;
12784;SDS011;6456;42.680;23.260;2023-02-28T06:37:36;40.07;;;23.73;;
12784;SDS011;6456;42.680;23.260;2023-02-28T06:40:03;44.37;;;24.67;;
12784;SDS011;6456;42.680;23.260;2023-02-28T06:42:34;45.53;;;25.97;;
12784;SDS011;6456;42.680;23.260;2023-02-28T06:45:01;44.03;;;24.80;;
12784;SDS011;6456;42.680;23.260;2023-02-28T06:47:34;42.93;;;25.47;;
12784;SDS011;6456;42.680;23.260;2023-02-28T06:50:01;43.57;;;25.43;;
12784;SDS011;6456;42.680;23.260;2023-02-28T06:52:28;46.73;;;27.90;;
12784;SDS011;6456;42.680;23.260;2023-02-28T06:54:55;44.43;;;26.07;;
12784;SDS011;6456;42.680;23.260;2023-02-28T06:57:27;43.40;;;26.23;;
12784;SDS011;6456;42.680;23.260;2023-02-28T06:59:57;45.70;;;27.97;;
12784;SDS011;6456;42.680;23.260;2023-02-28T07:02:24;48.80;;;27.60;;
12784;SDS011;6456;42.680;23.260;2023-02-28T07:04:51;47.93;;;27.93;;
12784;SDS011;6456;42.680;23.260;2023-02-28T07:07:18;48.13;;;28.13;;
12784;SDS011;6456;42.680;23.260;2023-02-28T07:09:45;45.80;;;27.67;;
12784;SDS011;6456;42.680;23.260;2023-02-28T07:12:12;50.10;;;29.17;;
12784;SDS011;6456;42.680;23.260;2023-02-28T07:14:39;51.60;;;28.07;;
12784;SDS011;6456;42.680;23.260;2023-02-28T07:17:08;47.97;;;29.20;;
12784;SDS011;6456;42.680;23.260;2023-02-28T07:19:37;47.37;;;29.63;;
12784;SDS011;6456;42.680;23.260;2023-02-28T07:22:04;43.00;;;29.07;;
12784;SDS011;6456;42.680;23.260;2023-02-28T07:24:30;53.17;;;29.53;;
12784;SDS011;6456;42.680;23.260;2023-02-28T07:26:57;52.50;;;29.00;;
12784;SDS011;6456;42.680;23.260;2023-02-28T07:29:25;45.23;;;28.03;;
12784;SDS011;6456;42.680;23.260;2023-02-28T07:31:52;42.53;;;25.07;;
12784;SDS011;6456;42.680;23.260;2023-02-28T07:34:20;47.50;;;25.27;;
12784;SDS011;6456;42.680;23.260;2023-02-28T07:36:47;44.40;;;24.47;;
12784;SDS011;6456;42.680;23.260;2023-02-28T07:39:18;44.57;;;25.13;;
12784;SDS011;6456;42.680;23.260;2023-02-28T07:41:45;42.20;;;25.10;;
12784;SDS011;6456;42.680;23.260;2023-02-28T07:44:12;45.00;;;25.67;;
12784;SDS011;6456;42.680;23.260;2023-02-28T07:46:39;49.07;;;25.40;;
12784;SDS011;6456;42.680;23.260;2023-02-28T07:49:06;46.57;;;25.07;;
12784;SDS011;6456;42.680;23.260;2023-02-28T07:51:34;50.07;;;26.10;;
12784;SDS011;6456;42.680;23.260;2023-02-28T07:54:01;44.83;;;25.43;;
12784;SDS011;6456;42.680;23.260;2023-02-28T07:56:28;42.30;;;25.67;;
12784;SDS011;6456;42.680;23.260;2023-02-28T07:58:55;47.60;;;24.63;;
12784;SDS011;6456;42.680;23.260;2023-02-28T08:01:24;45.03;;;26.17;;
12784;SDS011;6456;42.680;23.260;2023-02-28T08:03:51;45.20;;;25.20;;
12784;SDS011;6456;42.680;23.260;2023-02-28T08:06:21;45.17;;;24.07;;
12784;SDS011;6456;42.680;23.260;2023-02-28T08:08:50;40.77;;;23.53;;
12784;SDS011;6456;42.680;23.260;2023-02-28T08:11:17;43.23;;;24.57;;
12784;SDS011;6456;42.680;23.260;2023-02-28T08:13:44;43.13;;;24.03;;
12784;SDS011;6456;42.680;23.260;2023-02-28T08:16:12;43.10;;;24.70;;
12784;SDS011;6456;42.680;23.260;2023-02-28T08:18:46;41.37;;;25.80;;
12784;SDS011;6456;42.680;23.260;2023-02-28T08:21:12;42.13;;;24.43;;
12784;SDS011;6456;42.680;23.260;2023-02-28T08:23:39;47.20;;;26.63;;
12784;SDS011;6456;42.680;23.260;2023-02-28T08:26:07;38.53;;;25.63;;
12784;SDS011;6456;42.680;23.260;2023-02-28T08:28:34;47.33;;;25.87;;
12784;SDS011;6456;42.680;23.260;2023-02-28T08:31:01;45.43;;;25.67;;
12784;SDS011;6456;42.680;23.260;2023-02-28T08:33:35;48.50;;;26.17;;
12784;SDS011;6456;42.680;23.260;2023-02-28T08:36:04;44.03;;;26.17;;
12784;SDS011;6456;42.680;23.260;2023-02-28T08:38:33;41.87;;;25.20;;
12784;SDS011;6456;42.680;23.260;2023-02-28T08:41:01;42.77;;;26.27;;
12784;SDS011;6456;42.680;23.260;2023-02-28T08:43:32;42.20;;;25.40;;
12784;SDS011;6456;42.680;23.260;2023-02-28T08:45:59;43.33;;;24.90;;
12784;SDS011;6456;42.680;23.260;2023-02-28T08:48:27;44.63;;;25.40;;
12784;SDS011;6456;42.680;23.260;2023-02-28T08:50:56;41.47;;;26.33;;
12784;SDS011;6456;42.680;23.260;2023-02-28T08:53:23;44.87;;;25.47;;
12784;SDS011;6456;42.680;23.260;2023-02-28T08:55:57;45.80;;;26.13;;
12784;SDS011;6456;42.680;23.260;2023-02-28T08:58:24;42.10;;;25.33;;
12784;SDS011;6456;42.680;23.260;2023-02-28T09:00:53;43.60;;;25.77;;
12784;SDS011;6456;42.680;23.260;2023-02-28T09:03:20;44.90;;;26.00;;
12784;SDS011;6456;42.680;23.260;2023-02-28T09:05:51;44.33;;;26.37;;
12784;SDS011;6456;42.680;23.260;2023-02-28T09:08:20;43.70;;;24.93;;
12784;SDS011;6456;42.680;23.260;2023-02-28T09:10:47;48.73;;;26.53;;
12784;SDS011;6456;42.680;23.260;2023-02-28T09:13:13;42.17;;;25.97;;
12784;SDS011;6456;42.680;23.260;2023-02-28T09:15:40;45.73;;;24.07;;
12784;SDS011;6456;42.680;23.260;2023-02-28T09:18:08;47.50;;;25.67;;
12784;SDS011;6456;42.680;23.260;2023-02-28T09:20:37;39.73;;;24.50;;
12784;SDS011;6456;42.680;23.260;2023-02-28T09:23:04;46.30;;;24.87;;
12784;SDS011;6456;42.680;23.260;2023-02-28T09:25:31;43.73;;;24.07;;
12784;SDS011;6456;42.680;23.260;2023-02-28T09:27:58;40.27;;;24.70;;
12784;SDS011;6456;42.680;23.260;2023-02-28T09:30:25;39.53;;;24.90;;
12784;SDS011;6456;42.680;23.260;2023-02-28T09:32:53;38.57;;;23.73;;
12784;SDS011;6456;42.680;23.260;2023-02-28T09:35:21;43.87;;;25.13;;
12784;SDS011;6456;42.680;23.260;2023-02-28T09:37:49;39.53;;;25.87;;
12784;SDS011;6456;42.680;23.260;2023-02-28T09:40:17;40.43;;;25.60;;
12784;SDS011;6456;42.680;23.260;2023-02-28T09:42:45;43.27;;;26.13;;
12784;SDS011;6456;42.680;23.260;2023-02-28T09:45:17;44.27;;;27.93;;
12784;SDS011;6456;42.680;23.260;2023-02-28T09:47:50;47.53;;;27.57;;
12784;SDS011;6456;42.680;23.260;2023-02-28T09:50:28;48.23;;;28.00;;
12784;SDS011;6456;42.680;23.260;2023-02-28T09:53:02;45.67;;;27.33;;
12784;SDS011;6456;42.680;23.260;2023-02-28T09:55:33;45.30;;;27.37;;
12784;SDS011;6456;42.680;23.260;2023-02-28T09:58:05;42.50;;;27.77;;
12784;SDS011;6456;42.680;23.260;2023-02-28T10:00:45;41.37;;;26.47;;
12784;SDS011;6456;42.680;23.260;2023-02-28T10:03:25;47.93;;;30.23;;
12784;SDS011;6456;42.680;23.260;2023-02-28T10:05:58;47.10;;;28.43;;
12784;SDS011;6456;42.680;23.260;2023-02-28T10:08:36;40.23;;;27.57;;
12784;SDS011;6456;42.680;23.260;2023-02-28T10:11:09;42.70;;;28.13;;
12784;SDS011;6456;42.680;23.260;2023-02-28T10:13:45;45.20;;;28.30;;
12784;SDS011;6456;42.680;23.260;2023-02-28T10:16:20;42.33;;;26.87;;
12784;SDS011;6456;42.680;23.260;2023-02-28T10:18:52;47.37;;;29.80;;
12784;SDS011;6456;42.680;23.260;2023-02-28T10:21:26;40.60;;;27.50;;
12784;SDS011;6456;42.680;23.260;2023-02-28T10:23:59;47.13;;;30.10;;
12784;SDS011;6456;42.680;23.260;2023-02-28T10:26:31;45.43;;;28.70;;
12784;SDS011;6456;42.680;23.260;2023-02-28T10:28:59;39.53;;;27.50;;
12784;SDS011;6456;42.680;23.260;2023-02-28T10:31:27;40.67;;;27.50;;
12784;SDS011;6456;42.680;23.260;2023-02-28T10:33:54;39.67;;;26.87;;
12784;SDS011;6456;42.680;23.260;2023-02-28T10:36:21;39.67;;;27.53;;
12784;SDS011;6456;42.680;23.260;2023-02-28T10:38:50;45.97;;;29.70;;
12784;SDS011;6456;42.680;23.260;2023-02-28T10:41:27;48.10;;;30.73;;
12784;SDS011;6456;42.680;23.260;2023-02-28T10:44:13;39.17;;;27.80;;
12784;SDS011;6456;42.680;23.260;2023-02-28T10:46:41;38.53;;;27.03;;
12784;SDS011;6456;42.680;23.260;2023-02-28T10:49:13;37.90;;;25.97;;
12784;SDS011;6456;42.680;23.260;2023-02-28T10:51:43;36.47;;;23.80;;
12784;SDS011;6456;42.680;23.260;2023-02-28T10:54:19;33.87;;;22.20;;
12784;SDS011;6456;42.680;23.260;2023-02-28T10:59:32;26.77;;;16.40;;
12784;SDS011;6456;42.680;23.260;2023-02-28T11:01:59;18.03;;;11.97;;
12784;SDS011;6456;42.680;23.260;2023-02-28T11:04:33;26.40;;;12.20;;
12784;SDS011;6456;42.680;23.260;2023-02-28T11:07:04;19.40;;;12.10;;
12784;SDS011;6456;42.680;23.260;2023-02-28T11:09:34;20.57;;;11.23;;
12784;SDS011;6456;42.680;23.260;2023-02-28T11:12:04;19.87;;;11.37;;
12784;SDS011;6456;42.680;23.260;2023-02-28T11:14:35;23.43;;;11.33;;
12784;SDS011;6456;42.680;23.260;2023-02-28T11:17:13;20.03;;;11.77;;
12784;SDS011;6456;42.680;23.260;2023-02-28T11:19:46;16.43;;;11.07;;
12784;SDS011;6456;42.680;23.260;2023-02-28T11:22:17;15.23;;;10.50;;
12784;SDS011;6456;42.680;23.260;2023-02-28T11:24:47;16.40;;;9.80;;
12784;SDS011;6456;42.680;23.260;2023-02-28T11:27:24;16.97;;;10.57;;
12784;SDS011;6456;42.680;23.260;2023-02-28T11:29:52;18.33;;;10.63;;
12784;SDS011;6456;42.680;23.260;2023-02-28T11:32:20;18.83;;;10.50;;
12784;SDS011;6456;42.680;23.260;2023-02-28T11:34:59;16.27;;;10.63;;
12784;SDS011;6456;42.680;23.260;2023-02-28T11:37:28;17.87;;;11.17;;
12784;SDS011;6456;42.680;23.260;2023-02-28T11:39:59;24.93;;;11.50;;
12784;SDS011;6456;42.680;23.260;2023-02-28T11:42:38;16.70;;;10.30;;
12784;SDS011;6456;42.680;23.260;2023-02-28T11:45:37;16.70;;;11.17;;
12784;SDS011;6456;42.680;23.260;2023-02-28T11:48:21;19.43;;;11.10;;
12784;SDS011;6456;42.680;23.260;2023-02-28T11:50:52;19.93;;;12.13;;
12784;SDS011;6456;42.680;23.260;2023-02-28T11:53:36;19.60;;;11.33;;
12784;SDS011;6456;42.680;23.260;2023-02-28T11:56:17;21.07;;;12.20;;
12784;SDS011;6456;42.680;23.260;2023-02-28T11:58:52;18.53;;;11.03;;
12784;SDS011;6456;42.680;23.260;2023-02-28T12:01:35;20.33;;;12.10;;
12784;SDS011;6456;42.680;23.260;2023-02-28T12:04:12;20.67;;;12.23;;
12784;SDS011;6456;42.680;23.260;2023-02-28T12:06:50;21.30;;;11.70;;
12784;SDS011;6456;42.680;23.260;2023-02-28T12:09:29;17.90;;;11.60;;
12784;SDS011;6456;42.680;23.260;2023-02-28T12:12:10;16.40;;;12.50;;
12784;SDS011;6456;42.680;23.260;2023-02-28T12:17:47;17.20;;;12.17;;
12784;SDS011;6456;42.680;23.260;2023-02-28T12:20:24;21.77;;;12.37;;
12784;SDS011;6456;42.680;23.260;2023-02-28T12:23:01;19.87;;;12.30;;
12784;SDS011;6456;42.680;23.260;2023-02-28T12:25:44;17.80;;;10.83;;
12784;SDS011;6456;42.680;23.260;2023-02-28T12:28:21;21.17;;;12.10;;
12784;SDS011;6456;42.680;23.260;2023-02-28T12:30:53;25.57;;;12.20;;
12784;SDS011;6456;42.680;23.260;2023-02-28T12:33:24;21.07;;;12.47;;
12784;SDS011;6456;42.680;23.260;2023-02-28T12:35:59;21.10;;;12.67;;
12784;SDS011;6456;42.680;23.260;2023-02-28T12:38:31;17.60;;;12.30;;
12784;SDS011;6456;42.680;23.260;2023-02-28T12:41:04;21.93;;;12.20;;
12784;SDS011;6456;42.680;23.260;2023-02-28T12:43:38;22.10;;;12.60;;
12784;SDS011;6456;42.680;23.260;2023-02-28T12:46:11;22.03;;;12.60;;
12784;SDS011;6456;42.680;23.260;2023-02-28T12:48:43;14.80;;;10.30;;
12784;SDS011;6456;42.680;23.260;2023-02-28T12:51:12;20.33;;;11.83;;
12784;SDS011;6456;42.680;23.260;2023-02-28T12:53:46;21.20;;;11.70;;
12784;SDS011;6456;42.680;23.260;2023-02-28T12:56:22;18.73;;;11.27;;
12784;SDS011;6456;42.680;23.260;2023-02-28T12:59:01;27.37;;;12.73;;
12784;SDS011;6456;42.680;23.260;2023-02-28T13:01:46;20.00;;;12.00;;
12784;SDS011;6456;42.680;23.260;2023-02-28T13:10:45;23.10;;;10.63;;
12784;SDS011;6456;42.680;23.260;2023-02-28T13:13:15;24.27;;;11.50;;
12784;SDS011;6456;42.680;23.260;2023-02-28T13:15:58;18.00;;;11.23;;
12784;SDS011;6456;42.680;23.260;2023-02-28T13:18:29;19.43;;;11.80;;
12784;SDS011;6456;42.680;23.260;2023-02-28T13:20:58;23.37;;;12.67;;
12784;SDS011;6456;42.680;23.260;2023-02-28T13:29:30;22.90;;;11.33;;
12784;SDS011;6456;42.680;23.260;2023-02-28T13:38:18;15.33;;;10.77;;
12784;SDS011;6456;42.680;23.260;2023-02-28T13:40:50;17.17;;;10.27;;
12784;SDS011;6456;42.680;23.260;2023-02-28T13:43:17;18.93;;;11.20;;
12784;SDS011;6456;42.680;23.260;2023-02-28T13:48:34;14.80;;;9.20;;
12784;SDS011;6456;42.680;23.260;2023-02-28T13:54:13;17.47;;;10.07;;
12784;SDS011;6456;42.680;23.260;2023-02-28T13:56:50;18.63;;;9.70;;
12784;SDS011;6456;42.680;23.260;2023-02-28T13:59:26;18.00;;;9.00;;
12784;SDS011;6456;42.680;23.260;2023-02-28T14:05:04;24.07;;;9.70;;
12784;SDS011;6456;42.680;23.260;2023-02-28T14:07:33;17.53;;;9.63;;
12784;SDS011;6456;42.680;23.260;2023-02-28T14:10:06;18.80;;;9.07;;
12784;SDS011;6456;42.680;23.260;2023-02-28T14:12:54;18.77;;;8.60;;
12784;SDS011;6456;42.680;23.260;2023-02-28T14:15:28;17.30;;;9.50;;
12784;SDS011;6456;42.680;23.260;2023-02-28T14:18:16;19.23;;;8.73;;
12784;SDS011;6456;42.680;23.260;2023-02-28T14:20:48;17.83;;;8.60;;
12784;SDS011;6456;42.680;23.260;2023-02-28T14:23:24;14.70;;;8.40;;
12784;SDS011;6456;42.680;23.260;2023-02-28T14:26:02;17.57;;;9.63;;
12784;SDS011;6456;42.680;23.260;2023-02-28T14:28:39;16.00;;;9.13;;
12784;SDS011;6456;42.680;23.260;2023-02-28T14:31:16;18.27;;;9.33;;
12784;SDS011;6456;42.680;23.260;2023-02-28T14:33:57;16.30;;;9.60;;
12784;SDS011;6456;42.680;23.260;2023-02-28T14:36:33;18.20;;;10.67;;
12784;SDS011;6456;42.680;23.260;2023-02-28T14:39:04;20.67;;;10.03;;
12784;SDS011;6456;42.680;23.260;2023-02-28T14:41:34;18.90;;;9.87;;
12784;SDS011;6456;42.680;23.260;2023-02-28T14:44:12;18.20;;;9.27;;
12784;SDS011;6456;42.680;23.260;2023-02-28T14:46:41;15.13;;;9.50;;
12784;SDS011;6456;42.680;23.260;2023-02-28T14:49:12;14.53;;;9.60;;
12784;SDS011;6456;42.680;23.260;2023-02-28T14:51:43;17.23;;;9.77;;
12784;SDS011;6456;42.680;23.260;2023-02-28T14:54:13;14.90;;;9.10;;
12784;SDS011;6456;42.680;23.260;2023-02-28T14:56:42;17.27;;;9.00;;
12784;SDS011;6456;42.680;23.260;2023-02-28T14:59:23;14.00;;;8.77;;
12784;SDS011;6456;42.680;23.260;2023-02-28T15:02:07;17.00;;;10.00;;
12784;SDS011;6456;42.680;23.260;2023-02-28T15:04:51;15.63;;;8.57;;
12784;SDS011;6456;42.680;23.260;2023-02-28T15:07:21;15.87;;;8.57;;
12784;SDS011;6456;42.680;23.260;2023-02-28T15:12:36;22.70;;;10.33;;
12784;SDS011;6456;42.680;23.260;2023-02-28T15:15:05;16.30;;;8.63;;
12784;SDS011;6456;42.680;23.260;2023-02-28T15:17:40;18.83;;;8.67;;
12784;SDS011;6456;42.680;23.260;2023-02-28T15:20:10;21.57;;;11.83;;
12784;SDS011;6456;42.680;23.260;2023-02-28T15:22:41;18.07;;;8.97;;
12784;SDS011;6456;42.680;23.260;2023-02-28T15:25:09;16.33;;;9.20;;
12784;SDS011;6456;42.680;23.260;2023-02-28T15:27:42;19.03;;;10.53;;
12784;SDS011;6456;42.680;23.260;2023-02-28T15:30:15;19.10;;;9.93;;
12784;SDS011;6456;42.680;23.260;2023-02-28T15:32:43;18.80;;;9.67;;